sensor_id;sensor_type;location;lat;lon;timestamp;P1;durP1;ratioP1;P2;durP2;ratioP2
20545;SDS011;10431;50.228;9.112;2023-07-29T14:35:43;6.88;;;2.20;;
20545;SDS011;10431;50.228;9.112;2023-07-29T14:38:09;14.73;;;2.67;;
20545;SDS011;10431;50.228;9.112;2023-07-29T14:40:35;4.60;;;2.40;;
20545;SDS011;10431;50.228;9.112;2023-07-29T14:43:01;9.70;;;2.75;;
20545;SDS011;10431;50.228;9.112;2023-07-29T14:45:27;8.20;;;2.35;;
20545;SDS011;10431;50.228;9.112;2023-07-29T14:47:54;16.20;;;2.10;;
20545;SDS011;10431;50.228;9.112;2023-07-29T14:50:20;4.63;;;2.35;;
20545;SDS011;10431;50.228;9.112;2023-07-29T14:52:46;10.23;;;2.58;;
20545;SDS011;10431;50.228;9.112;2023-07-29T14:55:12;5.72;;;2.17;;
20545;SDS011;10431;50.228;9.112;2023-07-29T14:57:38;8.98;;;2.42;;
20545;SDS011;10431;50.228;9.112;2023-07-29T15:00:06;10.82;;;2.40;;
20545;SDS011;10431;50.228;9.112;2023-07-29T15:02:34;6.97;;;2.28;;
20545;SDS011;10431;50.228;9.112;2023-07-29T15:05:00;8.82;;;2.40;;
20545;SDS011;10431;50.228;9.112;2023-07-29T15:07:26;12.27;;;2.90;;
20545;SDS011;10431;50.228;9.112;2023-07-29T15:09:52;7.47;;;2.20;;
20545;SDS011;10431;50.228;9.112;2023-07-29T15:12:18;6.75;;;2.03;;
20545;SDS011;10431;50.228;9.112;2023-07-29T15:14:44;13.10;;;2.33;;
20545;SDS011;10431;50.228;9.112;2023-07-29T15:17:13;8.85;;;2.30;;
20545;SDS011;10431;50.228;9.112;2023-07-29T15:19:39;10.35;;;2.25;;
20545;SDS011;10431;50.228;9.112;2023-07-29T15:22:05;6.70;;;2.65;;
20545;SDS011;10431;50.228;9.112;2023-07-29T15:24:31;13.65;;;2.67;;
20545;SDS011;10431;50.228;9.112;2023-07-29T15:26:57;7.18;;;2.58;;
20545;SDS011;10431;50.228;9.112;2023-07-29T15:29:24;14.65;;;2.22;;
20545;SDS011;10431;50.228;9.112;2023-07-29T15:31:50;12.43;;;2.20;;
20545;SDS011;10431;50.228;9.112;2023-07-29T15:34:16;14.60;;;2.95;;
20545;SDS011;10431;50.228;9.112;2023-07-29T15:36:42;8.45;;;2.60;;
20545;SDS011;10431;50.228;9.112;2023-07-29T15:39:08;7.50;;;2.17;;
20545;SDS011;10431;50.228;9.112;2023-07-29T15:41:34;12.40;;;2.30;;
20545;SDS011;10431;50.228;9.112;2023-07-29T15:44:01;12.65;;;2.58;;
20545;SDS011;10431;50.228;9.112;2023-07-29T15:46:27;26.20;;;3.50;;
20545;SDS011;10431;50.228;9.112;2023-07-29T15:48:53;25.55;;;3.83;;
20545;SDS011;10431;50.228;9.112;2023-07-29T15:51:25;16.35;;;3.03;;
20545;SDS011;10431;50.228;9.112;2023-07-29T15:53:52;20.73;;;2.97;;
20545;SDS011;10431;50.228;9.112;2023-07-29T15:56:18;15.00;;;3.25;;
20545;SDS011;10431;50.228;9.112;2023-07-29T15:58:45;16.55;;;2.85;;
20545;SDS011;10431;50.228;9.112;2023-07-29T16:01:11;11.93;;;3.58;;
20545;SDS011;10431;50.228;9.112;2023-07-29T16:03:37;14.98;;;3.22;;
20545;SDS011;10431;50.228;9.112;2023-07-29T16:06:06;12.85;;;2.80;;
20545;SDS011;10431;50.228;9.112;2023-07-29T16:08:32;9.82;;;2.67;;
20545;SDS011;10431;50.228;9.112;2023-07-29T16:10:59;19.55;;;2.88;;
20545;SDS011;10431;50.228;9.112;2023-07-29T16:13:25;12.80;;;2.95;;
20545;SDS011;10431;50.228;9.112;2023-07-29T16:15:51;10.55;;;3.10;;
20545;SDS011;10431;50.228;9.112;2023-07-29T16:18:17;19.00;;;3.17;;
20545;SDS011;10431;50.228;9.112;2023-07-29T16:20:43;13.45;;;2.60;;
20545;SDS011;10431;50.228;9.112;2023-07-29T16:23:12;10.85;;;3.00;;
20545;SDS011;10431;50.228;9.112;2023-07-29T16:25:38;13.80;;;2.95;;
20545;SDS011;10431;50.228;9.112;2023-07-29T16:28:04;17.60;;;2.60;;
20545;SDS011;10431;50.228;9.112;2023-07-29T16:30:31;17.80;;;2.80;;
20545;SDS011;10431;50.228;9.112;2023-07-29T16:32:57;16.17;;;2.95;;
20545;SDS011;10431;50.228;9.112;2023-07-29T16:35:23;15.13;;;2.80;;
20545;SDS011;10431;50.228;9.112;2023-07-29T16:37:49;12.73;;;2.78;;
20545;SDS011;10431;50.228;9.112;2023-07-29T16:40:16;10.48;;;2.97;;
20545;SDS011;10431;50.228;9.112;2023-07-29T16:42:42;8.57;;;2.90;;
20545;SDS011;10431;50.228;9.112;2023-07-29T16:45:08;11.20;;;3.00;;
20545;SDS011;10431;50.228;9.112;2023-07-29T16:47:35;7.07;;;2.60;;
20545;SDS011;10431;50.228;9.112;2023-07-29T16:50:01;24.65;;;3.13;;
20545;SDS011;10431;50.228;9.112;2023-07-29T16:52:28;9.88;;;2.90;;
20545;SDS011;10431;50.228;9.112;2023-07-29T16:54:54;18.02;;;3.00;;
20545;SDS011;10431;50.228;9.112;2023-07-29T16:57:20;13.43;;;3.17;;
20545;SDS011;10431;50.228;9.112;2023-07-29T16:59:46;12.40;;;3.10;;
20545;SDS011;10431;50.228;9.112;2023-07-29T17:02:13;12.43;;;3.17;;
20545;SDS011;10431;50.228;9.112;2023-07-29T17:04:39;5.80;;;2.47;;
20545;SDS011;10431;50.228;9.112;2023-07-29T17:07:05;18.92;;;3.17;;
20545;SDS011;10431;50.228;9.112;2023-07-29T17:09:31;10.00;;;2.80;;
20545;SDS011;10431;50.228;9.112;2023-07-29T17:11:57;10.70;;;2.80;;
20545;SDS011;10431;50.228;9.112;2023-07-29T17:14:25;9.98;;;2.95;;
20545;SDS011;10431;50.228;9.112;2023-07-29T17:16:52;13.43;;;2.90;;
20545;SDS011;10431;50.228;9.112;2023-07-29T17:19:19;10.43;;;2.67;;
20545;SDS011;10431;50.228;9.112;2023-07-29T17:21:45;12.80;;;2.63;;
20545;SDS011;10431;50.228;9.112;2023-07-29T17:24:11;8.07;;;2.80;;
20545;SDS011;10431;50.228;9.112;2023-07-29T17:26:37;10.82;;;2.83;;
20545;SDS011;10431;50.228;9.112;2023-07-29T17:29:03;24.15;;;3.22;;
20545;SDS011;10431;50.228;9.112;2023-07-29T17:31:30;8.50;;;2.75;;
20545;SDS011;10431;50.228;9.112;2023-07-29T17:33:56;12.52;;;2.80;;
20545;SDS011;10431;50.228;9.112;2023-07-29T17:36:23;4.65;;;2.45;;
20545;SDS011;10431;50.228;9.112;2023-07-29T17:38:49;7.38;;;2.83;;
20545;SDS011;10431;50.228;9.112;2023-07-29T17:41:15;4.15;;;2.53;;
20545;SDS011;10431;50.228;9.112;2023-07-29T17:43:42;9.43;;;3.40;;
20545;SDS011;10431;50.228;9.112;2023-07-29T17:46:10;8.70;;;2.78;;
20545;SDS011;10431;50.228;9.112;2023-07-29T17:48:43;8.30;;;2.45;;
20545;SDS011;10431;50.228;9.112;2023-07-29T17:51:09;8.43;;;2.60;;
20545;SDS011;10431;50.228;9.112;2023-07-29T17:53:36;9.68;;;2.72;;
20545;SDS011;10431;50.228;9.112;2023-07-29T17:56:02;14.32;;;2.67;;
20545;SDS011;10431;50.228;9.112;2023-07-29T17:58:29;6.55;;;3.15;;
20545;SDS011;10431;50.228;9.112;2023-07-29T18:00:58;10.52;;;3.70;;
20545;SDS011;10431;50.228;9.112;2023-07-29T18:03:24;9.13;;;2.90;;
20545;SDS011;10431;50.228;9.112;2023-07-29T18:05:51;7.35;;;3.40;;
20545;SDS011;10431;50.228;9.112;2023-07-29T18:08:17;8.13;;;2.63;;
20545;SDS011;10431;50.228;9.112;2023-07-29T18:10:43;6.65;;;2.78;;
20545;SDS011;10431;50.228;9.112;2023-07-29T18:13:10;14.75;;;3.33;;
20545;SDS011;10431;50.228;9.112;2023-07-29T18:15:36;10.18;;;2.90;;
20545;SDS011;10431;50.228;9.112;2023-07-29T18:18:02;15.52;;;2.92;;
20545;SDS011;10431;50.228;9.112;2023-07-29T18:20:29;6.85;;;2.80;;
20545;SDS011;10431;50.228;9.112;2023-07-29T18:22:55;8.48;;;3.05;;
20545;SDS011;10431;50.228;9.112;2023-07-29T18:25:26;6.93;;;2.88;;
20545;SDS011;10431;50.228;9.112;2023-07-29T18:27:52;6.82;;;2.63;;
20545;SDS011;10431;50.228;9.112;2023-07-29T18:30:18;8.82;;;2.55;;
20545;SDS011;10431;50.228;9.112;2023-07-29T18:32:45;5.60;;;2.60;;
20545;SDS011;10431;50.228;9.112;2023-07-29T18:35:11;12.68;;;3.42;;
20545;SDS011;10431;50.228;9.112;2023-07-29T18:37:46;6.80;;;2.47;;
20545;SDS011;10431;50.228;9.112;2023-07-29T18:40:13;4.65;;;2.55;;
20545;SDS011;10431;50.228;9.112;2023-07-29T18:42:40;9.90;;;2.90;;
20545;SDS011;10431;50.228;9.112;2023-07-29T18:45:06;5.13;;;2.50;;
20545;SDS011;10431;50.228;9.112;2023-07-29T18:47:33;5.22;;;3.10;;
20545;SDS011;10431;50.228;9.112;2023-07-29T18:49:59;6.43;;;2.67;;
20545;SDS011;10431;50.228;9.112;2023-07-29T18:52:25;7.70;;;2.65;;
20545;SDS011;10431;50.228;9.112;2023-07-29T18:54:51;9.10;;;2.70;;
20545;SDS011;10431;50.228;9.112;2023-07-29T18:57:18;8.48;;;2.50;;
20545;SDS011;10431;50.228;9.112;2023-07-29T18:59:44;6.70;;;2.80;;
20545;SDS011;10431;50.228;9.112;2023-07-29T19:02:10;5.63;;;2.50;;
20545;SDS011;10431;50.228;9.112;2023-07-29T19:04:36;6.10;;;2.85;;
20545;SDS011;10431;50.228;9.112;2023-07-29T19:07:04;4.80;;;2.22;;
20545;SDS011;10431;50.228;9.112;2023-07-29T19:09:30;5.63;;;2.83;;
20545;SDS011;10431;50.228;9.112;2023-07-29T19:11:56;6.07;;;2.53;;
20545;SDS011;10431;50.228;9.112;2023-07-29T19:14:22;6.85;;;2.65;;
20545;SDS011;10431;50.228;9.112;2023-07-29T19:16:49;10.63;;;2.88;;
20545;SDS011;10431;50.228;9.112;2023-07-29T19:19:15;7.10;;;2.67;;
20545;SDS011;10431;50.228;9.112;2023-07-29T19:21:41;3.53;;;2.40;;
20545;SDS011;10431;50.228;9.112;2023-07-29T19:24:07;7.57;;;2.80;;
20545;SDS011;10431;50.228;9.112;2023-07-29T19:26:33;5.22;;;2.60;;
20545;SDS011;10431;50.228;9.112;2023-07-29T19:29:00;3.75;;;2.50;;
20545;SDS011;10431;50.228;9.112;2023-07-29T19:31:26;6.53;;;2.63;;
20545;SDS011;10431;50.228;9.112;2023-07-29T19:33:52;5.53;;;2.50;;
20545;SDS011;10431;50.228;9.112;2023-07-29T19:36:19;9.57;;;2.63;;
20545;SDS011;10431;50.228;9.112;2023-07-29T19:38:45;4.28;;;2.50;;
20545;SDS011;10431;50.228;9.112;2023-07-29T19:41:11;14.73;;;2.67;;
20545;SDS011;10431;50.228;9.112;2023-07-29T19:43:38;7.15;;;2.70;;
20545;SDS011;10431;50.228;9.112;2023-07-29T19:46:04;3.78;;;2.40;;
20545;SDS011;10431;50.228;9.112;2023-07-29T19:48:30;5.82;;;2.47;;
20545;SDS011;10431;50.228;9.112;2023-07-29T19:50:56;5.75;;;2.75;;
20545;SDS011;10431;50.228;9.112;2023-07-29T19:53:23;5.95;;;2.47;;
20545;SDS011;10431;50.228;9.112;2023-07-29T19:55:49;6.70;;;2.75;;
20545;SDS011;10431;50.228;9.112;2023-07-29T19:58:18;5.82;;;2.83;;
20545;SDS011;10431;50.228;9.112;2023-07-29T20:00:50;4.70;;;2.40;;
20545;SDS011;10431;50.228;9.112;2023-07-29T20:03:20;9.10;;;2.35;;
20545;SDS011;10431;50.228;9.112;2023-07-29T20:05:46;4.88;;;2.60;;
20545;SDS011;10431;50.228;9.112;2023-07-29T20:08:13;10.52;;;3.33;;
20545;SDS011;10431;50.228;9.112;2023-07-29T20:10:39;10.10;;;2.58;;
20545;SDS011;10431;50.228;9.112;2023-07-29T20:13:05;7.72;;;2.35;;
20545;SDS011;10431;50.228;9.112;2023-07-29T20:15:32;4.55;;;2.40;;
20545;SDS011;10431;50.228;9.112;2023-07-29T20:17:58;3.75;;;2.25;;
20545;SDS011;10431;50.228;9.112;2023-07-29T20:20:24;5.63;;;2.42;;
20545;SDS011;10431;50.228;9.112;2023-07-29T20:22:50;4.60;;;2.38;;
20545;SDS011;10431;50.228;9.112;2023-07-29T20:25:16;5.80;;;2.55;;
20545;SDS011;10431;50.228;9.112;2023-07-29T20:27:43;4.22;;;2.33;;
20545;SDS011;10431;50.228;9.112;2023-07-29T20:30:09;6.22;;;2.50;;
20545;SDS011;10431;50.228;9.112;2023-07-29T20:32:35;8.50;;;2.35;;
20545;SDS011;10431;50.228;9.112;2023-07-29T20:35:02;4.95;;;2.50;;
20545;SDS011;10431;50.228;9.112;2023-07-29T20:37:29;3.20;;;2.17;;
20545;SDS011;10431;50.228;9.112;2023-07-29T20:39:55;6.47;;;2.58;;
20545;SDS011;10431;50.228;9.112;2023-07-29T20:42:21;3.88;;;2.10;;
20545;SDS011;10431;50.228;9.112;2023-07-29T20:44:47;3.65;;;2.47;;
20545;SDS011;10431;50.228;9.112;2023-07-29T20:47:13;4.90;;;2.40;;
20545;SDS011;10431;50.228;9.112;2023-07-29T20:49:46;4.13;;;2.40;;
20545;SDS011;10431;50.228;9.112;2023-07-29T20:52:14;6.90;;;2.53;;
20545;SDS011;10431;50.228;9.112;2023-07-29T20:54:40;6.07;;;2.45;;
20545;SDS011;10431;50.228;9.112;2023-07-29T20:57:06;2.92;;;2.35;;
20545;SDS011;10431;50.228;9.112;2023-07-29T20:59:33;7.18;;;2.30;;
20545;SDS011;10431;50.228;9.112;2023-07-29T21:01:59;3.83;;;2.63;;
20545;SDS011;10431;50.228;9.112;2023-07-29T21:04:25;5.05;;;2.50;;
20545;SDS011;10431;50.228;9.112;2023-07-29T21:06:51;4.97;;;2.20;;
20545;SDS011;10431;50.228;9.112;2023-07-29T21:09:18;3.70;;;2.40;;
20545;SDS011;10431;50.228;9.112;2023-07-29T21:11:44;4.03;;;2.30;;
20545;SDS011;10431;50.228;9.112;2023-07-29T21:14:10;4.05;;;2.40;;
20545;SDS011;10431;50.228;9.112;2023-07-29T21:16:36;3.60;;;2.58;;
20545;SDS011;10431;50.228;9.112;2023-07-29T21:19:02;3.50;;;2.20;;
20545;SDS011;10431;50.228;9.112;2023-07-29T21:21:29;3.90;;;2.00;;
20545;SDS011;10431;50.228;9.112;2023-07-29T21:23:55;3.38;;;2.17;;
20545;SDS011;10431;50.228;9.112;2023-07-29T21:26:22;3.15;;;2.28;;
20545;SDS011;10431;50.228;9.112;2023-07-29T21:28:48;6.40;;;2.45;;
20545;SDS011;10431;50.228;9.112;2023-07-29T21:31:14;5.15;;;2.30;;
20545;SDS011;10431;50.228;9.112;2023-07-29T21:33:40;3.40;;;2.13;;
20545;SDS011;10431;50.228;9.112;2023-07-29T21:36:06;2.92;;;2.28;;
20545;SDS011;10431;50.228;9.112;2023-07-29T21:38:32;5.13;;;2.22;;
20545;SDS011;10431;50.228;9.112;2023-07-29T21:40:59;2.55;;;2.05;;
20545;SDS011;10431;50.228;9.112;2023-07-29T21:43:25;3.55;;;2.20;;
20545;SDS011;10431;50.228;9.112;2023-07-29T21:45:51;2.40;;;2.20;;
20545;SDS011;10431;50.228;9.112;2023-07-29T21:48:17;2.28;;;2.03;;
20545;SDS011;10431;50.228;9.112;2023-07-29T21:50:43;3.45;;;2.35;;
20545;SDS011;10431;50.228;9.112;2023-07-29T21:53:10;4.18;;;2.40;;
20545;SDS011;10431;50.228;9.112;2023-07-29T21:55:39;5.57;;;2.70;;
20545;SDS011;10431;50.228;9.112;2023-07-29T21:58:06;3.20;;;2.50;;
20545;SDS011;10431;50.228;9.112;2023-07-29T22:00:33;2.63;;;2.03;;
20545;SDS011;10431;50.228;9.112;2023-07-29T22:02:59;4.97;;;2.08;;
20545;SDS011;10431;50.228;9.112;2023-07-29T22:05:25;2.75;;;2.20;;
20545;SDS011;10431;50.228;9.112;2023-07-29T22:07:51;5.57;;;2.30;;
20545;SDS011;10431;50.228;9.112;2023-07-29T22:10:17;2.95;;;2.30;;
20545;SDS011;10431;50.228;9.112;2023-07-29T22:12:43;3.80;;;2.28;;
20545;SDS011;10431;50.228;9.112;2023-07-29T22:15:11;2.80;;;2.10;;
20545;SDS011;10431;50.228;9.112;2023-07-29T22:17:37;2.65;;;2.10;;
20545;SDS011;10431;50.228;9.112;2023-07-29T22:20:03;2.65;;;2.10;;
20545;SDS011;10431;50.228;9.112;2023-07-29T22:22:30;2.60;;;2.17;;
20545;SDS011;10431;50.228;9.112;2023-07-29T22:24:56;2.85;;;1.90;;
20545;SDS011;10431;50.228;9.112;2023-07-29T22:27:22;3.72;;;2.10;;
20545;SDS011;10431;50.228;9.112;2023-07-29T22:29:49;2.65;;;2.15;;
20545;SDS011;10431;50.228;9.112;2023-07-29T22:32:16;3.00;;;2.03;;
20545;SDS011;10431;50.228;9.112;2023-07-29T22:34:43;2.30;;;2.10;;
20545;SDS011;10431;50.228;9.112;2023-07-29T22:37:09;2.72;;;1.98;;
20545;SDS011;10431;50.228;9.112;2023-07-29T22:39:35;3.25;;;2.20;;
20545;SDS011;10431;50.228;9.112;2023-07-29T22:42:01;3.10;;;2.30;;
20545;SDS011;10431;50.228;9.112;2023-07-29T22:44:28;4.45;;;2.17;;
20545;SDS011;10431;50.228;9.112;2023-07-29T22:46:54;2.30;;;2.10;;
20545;SDS011;10431;50.228;9.112;2023-07-29T22:49:20;2.40;;;2.20;;
20545;SDS011;10431;50.228;9.112;2023-07-29T22:51:46;2.83;;;1.90;;
20545;SDS011;10431;50.228;9.112;2023-07-29T22:54:12;3.38;;;1.98;;
20545;SDS011;10431;50.228;9.112;2023-07-29T22:56:39;2.92;;;2.00;;
20545;SDS011;10431;50.228;9.112;2023-07-29T22:59:05;5.20;;;2.20;;
20545;SDS011;10431;50.228;9.112;2023-07-29T23:01:33;2.05;;;1.85;;
20545;SDS011;10431;50.228;9.112;2023-07-29T23:04:00;6.53;;;2.22;;
20545;SDS011;10431;50.228;9.112;2023-07-29T23:06:26;3.47;;;2.53;;
20545;SDS011;10431;50.228;9.112;2023-07-29T23:08:52;4.63;;;2.20;;
20545;SDS011;10431;50.228;9.112;2023-07-29T23:11:18;3.40;;;1.98;;
20545;SDS011;10431;50.228;9.112;2023-07-29T23:13:44;3.80;;;1.90;;
20545;SDS011;10431;50.228;9.112;2023-07-29T23:16:10;2.17;;;1.98;;
20545;SDS011;10431;50.228;9.112;2023-07-29T23:18:37;2.10;;;1.90;;
20545;SDS011;10431;50.228;9.112;2023-07-29T23:21:03;3.20;;;2.38;;
20545;SDS011;10431;50.228;9.112;2023-07-29T23:23:29;2.20;;;1.90;;
20545;SDS011;10431;50.228;9.112;2023-07-29T23:25:55;4.32;;;2.15;;
20545;SDS011;10431;50.228;9.112;2023-07-29T23:28:21;2.28;;;1.70;;
20545;SDS011;10431;50.228;9.112;2023-07-29T23:30:48;3.30;;;2.13;;
20545;SDS011;10431;50.228;9.112;2023-07-29T23:33:14;3.88;;;2.33;;
20545;SDS011;10431;50.228;9.112;2023-07-29T23:35:40;2.55;;;2.00;;
20545;SDS011;10431;50.228;9.112;2023-07-29T23:38:06;2.35;;;2.15;;
20545;SDS011;10431;50.228;9.112;2023-07-29T23:40:32;3.45;;;2.20;;
20545;SDS011;10431;50.228;9.112;2023-07-29T23:42:59;2.22;;;1.88;;
20545;SDS011;10431;50.228;9.112;2023-07-29T23:45:25;2.95;;;1.90;;
20545;SDS011;10431;50.228;9.112;2023-07-29T23:47:51;4.03;;;1.85;;
20545;SDS011;10431;50.228;9.112;2023-07-29T23:50:17;3.28;;;2.20;;
20545;SDS011;10431;50.228;9.112;2023-07-29T23:52:43;2.60;;;1.95;;
20545;SDS011;10431;50.228;9.112;2023-07-29T23:55:10;3.47;;;1.77;;
20545;SDS011;10431;50.228;9.112;2023-07-29T23:57:36;2.67;;;1.88;;
